createdAt,value
2019-03-15T00:00:23.725Z,24.59
2019-03-15T00:00:50.216Z,24.59
2019-03-15T00:01:15.730Z,24.6
2019-03-15T00:01:42.053Z,24.61
2019-03-15T00:02:07.731Z,24.62
2019-03-15T00:02:33.913Z,24.62
2019-03-15T00:02:59.714Z,24.6
2019-03-15T00:03:25.715Z,24.6
2019-03-15T00:03:51.727Z,24.6
2019-03-15T00:04:17.802Z,24.62
2019-03-15T00:04:43.719Z,24.64
2019-03-15T00:05:09.739Z,24.66
2019-03-15T00:05:35.717Z,24.67
2019-03-15T00:06:01.734Z,24.68
2019-03-15T00:06:27.718Z,24.68
2019-03-15T00:06:53.735Z,24.68
2019-03-15T00:07:19.804Z,24.68
2019-03-15T00:07:45.739Z,24.65
2019-03-15T00:08:11.742Z,24.64
2019-03-15T00:08:37.741Z,24.61
2019-03-15T00:09:03.852Z,24.61
2019-03-15T00:09:29.740Z,24.6
2019-03-15T00:09:55.728Z,24.61
2019-03-15T00:10:21.742Z,24.61
2019-03-15T00:10:47.726Z,24.62
2019-03-15T00:11:13.736Z,24.61
2019-03-15T00:11:39.735Z,24.61
2019-03-15T00:12:06.383Z,24.62
2019-03-15T00:12:31.743Z,24.62
2019-03-15T00:12:57.749Z,24.62
2019-03-15T00:13:23.732Z,24.62
2019-03-15T00:13:49.735Z,24.61
2019-03-15T00:14:15.733Z,24.61
2019-03-15T00:14:41.749Z,24.61
2019-03-15T00:15:07.813Z,24.62
2019-03-15T00:15:33.731Z,24.61
2019-03-15T00:15:59.748Z,24.61
2019-03-15T00:16:25.738Z,24.6
2019-03-15T00:16:51.752Z,24.6
2019-03-15T00:17:17.733Z,24.6
2019-03-15T00:17:43.736Z,24.6
2019-03-15T00:18:09.755Z,24.6
2019-03-15T00:18:35.821Z,24.59
2019-03-15T00:19:01.754Z,24.59
2019-03-15T00:19:27.758Z,24.6
2019-03-15T00:19:53.746Z,24.59
2019-03-15T00:20:19.756Z,24.58
2019-03-15T00:20:45.742Z,24.58
2019-03-15T00:21:11.754Z,24.58
2019-03-15T00:21:37.756Z,24.57
2019-03-15T00:22:03.810Z,24.57
2019-03-15T00:22:29.759Z,24.57
2019-03-15T00:22:55.747Z,24.57
2019-03-15T00:23:21.760Z,24.57
2019-03-15T00:23:47.745Z,24.57
2019-03-15T00:24:13.746Z,24.55
2019-03-15T00:24:39.762Z,24.54
2019-03-15T00:25:05.763Z,24.52
2019-03-15T00:25:31.769Z,24.54
2019-03-15T00:25:57.764Z,24.54
2019-03-15T00:26:23.746Z,24.54
2019-03-15T00:26:49.749Z,24.53
2019-03-15T00:27:15.752Z,24.52
2019-03-15T00:27:41.761Z,24.51
2019-03-15T00:28:07.832Z,24.51
2019-03-15T00:28:34.090Z,24.5
2019-03-15T00:28:59.773Z,24.49
2019-03-15T00:29:25.752Z,24.48
2019-03-15T00:29:51.769Z,24.48
2019-03-15T00:30:17.755Z,24.48
2019-03-15T00:30:43.755Z,24.47
2019-03-15T00:31:09.768Z,24.47
2019-03-15T00:31:35.836Z,24.46
2019-03-15T00:32:02.049Z,24.46
2019-03-15T00:32:27.773Z,24.45
2019-03-15T00:32:53.760Z,24.44
2019-03-15T00:33:19.775Z,24.44
2019-03-15T00:33:45.761Z,24.43
2019-03-15T00:34:11.776Z,24.42
2019-03-15T00:34:37.876Z,24.4
2019-03-15T00:35:03.831Z,24.39
2019-03-15T00:35:29.778Z,24.38
2019-03-15T00:35:55.781Z,24.37
2019-03-15T00:36:21.783Z,24.36
2019-03-15T00:36:47.765Z,24.36
2019-03-15T00:37:13.766Z,24.35
2019-03-15T00:37:39.766Z,24.34
2019-03-15T00:38:05.767Z,24.34
2019-03-15T00:38:31.781Z,24.34
2019-03-15T00:38:57.848Z,24.33
2019-03-15T00:39:23.767Z,24.32
2019-03-15T00:39:49.783Z,24.31
2019-03-15T00:40:15.769Z,24.31
2019-03-15T00:40:41.787Z,24.3
2019-03-15T00:41:07.771Z,24.29
2019-03-15T00:41:33.771Z,24.29
2019-03-15T00:41:59.787Z,24.28
2019-03-15T00:42:25.846Z,24.28
2019-03-15T00:42:51.784Z,24.26
2019-03-15T00:43:17.787Z,24.26
2019-03-15T00:43:43.768Z,24.25
2019-03-15T00:44:09.786Z,24.25
2019-03-15T00:44:35.769Z,24.24
2019-03-15T00:45:01.786Z,24.24
2019-03-15T00:45:27.773Z,24.22
2019-03-15T00:45:53.779Z,24.22
2019-03-15T00:46:19.791Z,24.22
2019-03-15T00:46:45.791Z,24.2
2019-03-15T00:47:11.789Z,24.19
2019-03-15T00:47:37.779Z,24.19
2019-03-15T00:48:03.777Z,24.18
2019-03-15T00:48:29.775Z,24.17
2019-03-15T00:48:55.776Z,24.16
2019-03-15T00:49:21.791Z,24.15
2019-03-15T00:49:47.797Z,24.15
2019-03-15T00:50:13.851Z,24.14
2019-03-15T00:50:39.800Z,24.13
2019-03-15T00:51:05.799Z,24.14
2019-03-15T00:51:31.975Z,24.11
2019-03-15T00:51:57.788Z,24.11
2019-03-15T00:52:23.789Z,24.1
2019-03-15T00:52:49.791Z,24.09
2019-03-15T00:53:15.796Z,24.09
2019-03-15T00:53:41.864Z,24.08
2019-03-15T00:54:07.816Z,24.07
2019-03-15T00:54:33.794Z,24.06
2019-03-15T00:54:59.807Z,24.05
2019-03-15T00:55:25.793Z,24.04
2019-03-15T00:55:51.793Z,24.03
2019-03-15T00:56:17.801Z,24.03
2019-03-15T00:56:43.862Z,24.02
2019-03-15T00:57:09.809Z,24
2019-03-15T00:57:35.797Z,23.99
2019-03-15T00:58:01.810Z,23.97
2019-03-15T00:58:27.807Z,23.92
2019-03-15T00:58:53.797Z,23.92
2019-03-15T00:59:19.804Z,23.91
2019-03-15T00:59:45.883Z,23.87
2019-03-15T01:00:11.814Z,23.86
2019-03-15T01:00:37.819Z,23.85
2019-03-15T01:01:03.800Z,23.85
2019-03-15T01:01:29.800Z,23.84
2019-03-15T01:01:55.802Z,23.83
2019-03-15T01:02:21.817Z,23.82
2019-03-15T01:02:47.808Z,23.82
2019-03-15T01:03:13.866Z,23.8
2019-03-15T01:03:39.820Z,23.79
2019-03-15T01:04:05.808Z,23.78
2019-03-15T01:04:31.823Z,23.77
2019-03-15T01:04:57.800Z,23.76
2019-03-15T01:05:23.806Z,23.76
2019-03-15T01:05:50.611Z,23.75
2019-03-15T01:06:15.824Z,23.73
2019-03-15T01:06:41.821Z,23.7
2019-03-15T01:07:07.844Z,23.68
2019-03-15T01:07:33.807Z,23.67
2019-03-15T01:07:59.823Z,23.65
2019-03-15T01:08:25.807Z,23.63
2019-03-15T01:08:51.836Z,23.62
2019-03-15T01:09:17.834Z,23.6
2019-03-15T01:09:43.809Z,23.41
2019-03-15T01:10:09.831Z,23.01
2019-03-15T01:10:35.818Z,22.81
2019-03-15T01:11:01.830Z,22.53
2019-03-15T01:11:27.817Z,22.3
2019-03-15T01:11:53.820Z,21.91
2019-03-15T01:12:19.821Z,21.72
2019-03-15T01:12:45.831Z,21.61
2019-03-15T01:13:11.897Z,21.53
2019-03-15T01:13:37.841Z,21.3
2019-03-15T01:14:03.819Z,21.18
2019-03-15T01:14:29.837Z,21.06
2019-03-15T01:14:55.833Z,20.84
2019-03-15T01:15:21.837Z,20.73
2019-03-15T01:15:47.820Z,20.59
2019-03-15T01:16:13.822Z,20.45
2019-03-15T01:16:39.837Z,20.45
2019-03-15T01:17:06.128Z,20.37
2019-03-15T01:17:31.955Z,20.21
2019-03-15T01:17:57.822Z,20.19
2019-03-15T01:18:23.824Z,19.96
2019-03-15T01:18:49.826Z,19.95
2019-03-15T01:19:15.824Z,19.89
2019-03-15T01:19:41.846Z,19.92
2019-03-15T01:20:07.914Z,19.85
2019-03-15T01:20:33.827Z,19.79
2019-03-15T01:20:59.855Z,19.82
2019-03-15T01:21:25.831Z,19.82
2019-03-15T01:21:51.843Z,19.75
2019-03-15T01:22:17.869Z,19.71
2019-03-15T01:22:43.856Z,19.66
2019-03-15T01:23:09.900Z,19.6
2019-03-15T01:23:36.091Z,19.46
2019-03-15T01:24:01.853Z,19.44
2019-03-15T01:24:27.902Z,19.42
2019-03-15T01:24:53.878Z,19.38
2019-03-15T01:25:20.279Z,19.37
2019-03-15T01:25:45.870Z,19.35
2019-03-15T01:26:11.848Z,19.33
2019-03-15T01:26:37.923Z,19.27
2019-03-15T01:27:04.416Z,19.12
2019-03-15T01:27:29.853Z,18.93
2019-03-15T01:27:55.837Z,18.81
2019-03-15T01:28:21.854Z,18.73
2019-03-15T01:28:47.836Z,18.71
2019-03-15T01:29:13.839Z,18.68
2019-03-15T01:29:39.844Z,18.58
2019-03-15T01:30:05.857Z,18.58
2019-03-15T01:30:31.924Z,18.57
2019-03-15T01:30:57.856Z,18.49
2019-03-15T01:31:23.843Z,18.54
2019-03-15T01:31:49.859Z,18.48
2019-03-15T01:32:15.841Z,18.43
2019-03-15T01:32:41.858Z,18.33
2019-03-15T01:33:07.851Z,18.35
2019-03-15T01:33:33.843Z,18.28
2019-03-15T01:33:59.863Z,18.23
2019-03-15T01:34:25.849Z,18.28
2019-03-15T01:34:51.862Z,18.25
2019-03-15T01:35:17.850Z,18.2
2019-03-15T01:35:43.852Z,18.15
2019-03-15T01:36:09.856Z,18.14
2019-03-15T01:36:35.930Z,18.08
2019-03-15T01:37:01.865Z,18.02
2019-03-15T01:37:27.866Z,17.96
2019-03-15T01:37:53.851Z,17.86
2019-03-15T01:38:19.871Z,17.86
2019-03-15T01:38:45.853Z,17.89
2019-03-15T01:39:11.879Z,17.89
2019-03-15T01:39:37.851Z,17.87
2019-03-15T01:40:03.858Z,17.87
2019-03-15T01:40:29.932Z,17.84
2019-03-15T01:40:55.873Z,17.92
2019-03-15T01:41:21.873Z,18.06
2019-03-15T01:41:47.899Z,18.18
2019-03-15T01:42:13.856Z,18.29
2019-03-15T01:42:39.856Z,18.4
2019-03-15T01:43:05.859Z,18.51
2019-03-15T01:43:31.868Z,18.62
2019-03-15T01:43:57.877Z,18.73
2019-03-15T01:44:23.934Z,18.83
2019-03-15T01:44:49.881Z,18.95
2019-03-15T01:45:15.879Z,19.03
2019-03-15T01:45:41.874Z,19.1
2019-03-15T01:46:07.901Z,19.17
2019-03-15T01:46:33.909Z,19.23
2019-03-15T01:46:59.862Z,19.28
2019-03-15T01:47:25.866Z,19.35
2019-03-15T01:47:51.881Z,19.4
2019-03-15T01:48:17.889Z,19.48
2019-03-15T01:48:43.902Z,19.52
2019-03-15T01:49:09.879Z,19.57
2019-03-15T01:49:35.904Z,19.6
2019-03-15T01:50:01.885Z,19.64
2019-03-15T01:50:27.868Z,19.67
2019-03-15T01:50:53.870Z,19.7
2019-03-15T01:51:19.881Z,19.73
2019-03-15T01:51:45.939Z,19.75
2019-03-15T01:52:12.201Z,19.79
2019-03-15T01:52:37.889Z,19.82
2019-03-15T01:53:03.920Z,19.86
2019-03-15T01:53:29.888Z,19.88
2019-03-15T01:53:55.871Z,19.9
2019-03-15T01:54:21.887Z,19.92
2019-03-15T01:54:47.952Z,19.95
2019-03-15T01:55:13.941Z,19.96
2019-03-15T01:55:39.893Z,19.99
2019-03-15T01:56:05.890Z,20.03
2019-03-15T01:56:31.908Z,20.04
2019-03-15T01:56:57.876Z,20.06
2019-03-15T01:57:23.878Z,20.08
2019-03-15T01:57:49.881Z,20.1
2019-03-15T01:58:15.881Z,20.12
2019-03-15T01:58:41.896Z,20.13
2019-03-15T01:59:07.901Z,20.16
2019-03-15T01:59:33.886Z,20.17
2019-03-15T01:59:59.895Z,20.19
2019-03-15T02:00:25.882Z,20.21
2019-03-15T02:00:51.896Z,20.22
2019-03-15T02:01:17.890Z,20.24
2019-03-15T02:01:44.299Z,20.25
2019-03-15T02:02:09.897Z,20.26
2019-03-15T02:02:35.890Z,20.27
2019-03-15T02:03:01.901Z,20.29
2019-03-15T02:03:27.917Z,20.31
2019-03-15T02:03:54.045Z,20.31
2019-03-15T02:04:20.324Z,20.33
2019-03-15T02:04:45.957Z,20.34
2019-03-15T02:05:11.916Z,20.36
2019-03-15T02:05:37.904Z,20.37
2019-03-15T02:06:03.891Z,20.38
2019-03-15T02:06:29.907Z,20.39
2019-03-15T02:06:55.891Z,20.4
2019-03-15T02:07:21.914Z,20.41
2019-03-15T02:07:47.974Z,20.41
2019-03-15T02:08:13.915Z,20.43
2019-03-15T02:08:39.913Z,20.42
2019-03-15T02:09:05.913Z,20.44
2019-03-15T02:09:31.907Z,20.45
2019-03-15T02:09:57.897Z,20.44
2019-03-15T02:10:23.894Z,20.45
2019-03-15T02:10:49.899Z,20.45
2019-03-15T02:11:15.897Z,20.46
2019-03-15T02:11:41.950Z,20.46
2019-03-15T02:12:07.916Z,20.46
2019-03-15T02:12:33.966Z,20.46
2019-03-15T02:12:59.917Z,20.47
2019-03-15T02:13:25.900Z,20.47
2019-03-15T02:13:52.595Z,20.47
2019-03-15T02:14:17.897Z,20.46
2019-03-15T02:14:43.905Z,20.47
2019-03-15T02:15:09.922Z,20.48
2019-03-15T02:15:35.970Z,20.48
2019-03-15T02:16:01.916Z,20.48
2019-03-15T02:16:27.917Z,20.48
2019-03-15T02:16:53.932Z,20.47
2019-03-15T02:17:20.302Z,20.47
2019-03-15T02:17:45.906Z,20.47
2019-03-15T02:18:11.922Z,20.47
2019-03-15T02:18:37.912Z,20.47
2019-03-15T02:19:03.917Z,20.47
2019-03-15T02:19:29.979Z,20.46
2019-03-15T02:19:55.922Z,20.46
2019-03-15T02:20:21.919Z,20.46
2019-03-15T02:20:47.925Z,20.45
2019-03-15T02:21:13.918Z,20.46
2019-03-15T02:21:39.909Z,20.45
2019-03-15T02:22:05.908Z,20.45
2019-03-15T02:22:31.928Z,20.45
2019-03-15T02:22:58.362Z,20.45
2019-03-15T02:23:23.917Z,20.44
2019-03-15T02:23:49.927Z,20.44
2019-03-15T02:24:15.912Z,20.44
2019-03-15T02:24:41.930Z,20.44
2019-03-15T02:25:07.940Z,20.44
2019-03-15T02:25:33.919Z,20.43
2019-03-15T02:25:59.944Z,20.43
2019-03-15T02:26:25.921Z,20.43
2019-03-15T02:26:51.935Z,20.43
2019-03-15T02:27:17.918Z,20.43
2019-03-15T02:27:43.922Z,20.43
2019-03-15T02:28:09.924Z,20.43
2019-03-15T02:28:35.936Z,20.42
2019-03-15T02:29:01.937Z,20.42
2019-03-15T02:29:27.935Z,20.42
2019-03-15T02:29:53.927Z,20.41
2019-03-15T02:30:19.938Z,20.41
2019-03-15T02:30:45.928Z,20.41
2019-03-15T02:31:11.944Z,20.41
2019-03-15T02:31:37.929Z,20.4
2019-03-15T02:32:03.937Z,20.4
2019-03-15T02:32:30.008Z,20.39
2019-03-15T02:32:55.942Z,20.38
2019-03-15T02:33:21.940Z,20.38
2019-03-15T02:33:47.930Z,20.38
2019-03-15T02:34:13.926Z,20.37
2019-03-15T02:34:39.931Z,20.38
2019-03-15T02:35:05.937Z,20.37
2019-03-15T02:35:32.016Z,20.38
2019-03-15T02:35:57.949Z,20.36
2019-03-15T02:36:23.932Z,20.36
2019-03-15T02:36:49.948Z,20.36
2019-03-15T02:37:15.934Z,20.35
2019-03-15T02:37:41.958Z,20.35
2019-03-15T02:38:07.931Z,20.34
2019-03-15T02:38:33.935Z,20.34
2019-03-15T02:38:59.954Z,20.33
2019-03-15T02:39:25.954Z,20.33
2019-03-15T02:39:51.954Z,20.32
2019-03-15T02:40:17.958Z,20.32
2019-03-15T02:40:43.940Z,20.31
2019-03-15T02:41:09.953Z,20.32
2019-03-15T02:41:35.941Z,20.3
2019-03-15T02:42:02.488Z,20.3
2019-03-15T02:42:27.956Z,20.3
2019-03-15T02:42:53.940Z,20.29
2019-03-15T02:43:19.965Z,20.29
2019-03-15T02:43:45.942Z,20.28
2019-03-15T02:44:11.959Z,20.28
2019-03-15T02:44:37.942Z,20.27
2019-03-15T02:45:03.944Z,20.27
2019-03-15T02:45:29.957Z,20.26
2019-03-15T02:45:56.065Z,20.25
2019-03-15T02:46:21.961Z,20.24
2019-03-15T02:46:47.965Z,20.24
2019-03-15T02:47:13.946Z,20.23
2019-03-15T02:47:39.962Z,20.23
2019-03-15T02:48:05.945Z,20.22
2019-03-15T02:48:31.966Z,20.22
2019-03-15T02:48:58.459Z,20.22
2019-03-15T02:49:23.958Z,20.21
2019-03-15T02:49:49.970Z,20.2
2019-03-15T02:50:16.033Z,20.2
2019-03-15T02:50:41.968Z,20.17
2019-03-15T02:51:07.974Z,20.17
2019-03-15T02:51:33.955Z,20.16
2019-03-15T02:51:59.952Z,20.16
2019-03-15T02:52:25.952Z,20.15
2019-03-15T02:52:52.004Z,20.15
2019-03-15T02:53:17.973Z,20.15
2019-03-15T02:53:43.958Z,20.14
2019-03-15T02:54:09.976Z,20.14
2019-03-15T02:54:35.959Z,20.14
2019-03-15T02:55:01.973Z,20.13
2019-03-15T02:55:27.958Z,20.13
2019-03-15T02:55:53.957Z,20.12
2019-03-15T02:56:19.991Z,20.12
2019-03-15T02:56:45.974Z,20.11
2019-03-15T02:57:11.975Z,20.1
2019-03-15T02:57:37.979Z,20.1
2019-03-15T02:58:03.966Z,20.09
2019-03-15T02:58:29.976Z,20.08
2019-03-15T02:58:55.962Z,20.07
2019-03-15T02:59:21.983Z,20.06
2019-03-15T02:59:47.964Z,20.06
2019-03-15T03:00:13.976Z,20.07
2019-03-15T03:00:39.982Z,20.06
2019-03-15T03:01:05.990Z,20.05
2019-03-15T03:01:31.982Z,20.05
2019-03-15T03:01:57.980Z,20.04
2019-03-15T03:02:23.976Z,20.03
2019-03-15T03:02:50.007Z,20.02
2019-03-15T03:03:15.970Z,20.02
2019-03-15T03:03:41.978Z,20.02
2019-03-15T03:04:08.053Z,20.01
2019-03-15T03:04:33.971Z,20.01
2019-03-15T03:04:59.988Z,20
2019-03-15T03:05:25.974Z,20
2019-03-15T03:05:51.992Z,19.99
2019-03-15T03:06:17.972Z,19.97
2019-03-15T03:06:43.973Z,19.96
2019-03-15T03:07:10.002Z,19.96
2019-03-15T03:07:36.046Z,19.96
2019-03-15T03:08:01.991Z,19.96
2019-03-15T03:08:27.993Z,19.96
2019-03-15T03:08:53.977Z,19.95
2019-03-15T03:09:19.993Z,19.95
2019-03-15T03:09:45.983Z,19.95
2019-03-15T03:10:11.993Z,19.94
2019-03-15T03:10:37.982Z,19.93
2019-03-15T03:11:03.987Z,19.93
2019-03-15T03:11:30.057Z,19.93
2019-03-15T03:11:55.999Z,19.94
2019-03-15T03:12:22.007Z,19.94
2019-03-15T03:12:47.982Z,19.93
2019-03-15T03:13:13.982Z,19.92
2019-03-15T03:13:39.982Z,19.91
2019-03-15T03:14:05.996Z,19.9
2019-03-15T03:14:32.249Z,19.89
2019-03-15T03:14:58.007Z,19.89
2019-03-15T03:15:23.992Z,19.89
2019-03-15T03:15:50.006Z,19.89
2019-03-15T03:16:15.984Z,19.88
2019-03-15T03:16:41.987Z,19.88
2019-03-15T03:17:07.998Z,19.86
2019-03-15T03:17:34.060Z,19.85
2019-03-15T03:18:00.008Z,19.84
2019-03-15T03:18:26.011Z,19.85
2019-03-15T03:18:52.015Z,19.85
2019-03-15T03:19:18.013Z,19.85
2019-03-15T03:19:43.995Z,19.85
2019-03-15T03:20:10.013Z,19.84
2019-03-15T03:20:35.992Z,19.83
2019-03-15T03:21:02.430Z,19.82
2019-03-15T03:21:28.017Z,19.81
2019-03-15T03:21:54.061Z,19.79
2019-03-15T03:22:20.016Z,19.78
2019-03-15T03:22:45.995Z,19.78
2019-03-15T03:23:12.053Z,19.78
2019-03-15T03:23:38.005Z,19.79
2019-03-15T03:24:04.002Z,19.79
2019-03-15T03:24:30.016Z,19.8
2019-03-15T03:24:56.016Z,19.81
2019-03-15T03:25:22.020Z,19.8
2019-03-15T03:25:48.020Z,19.8
2019-03-15T03:26:14.001Z,19.8
2019-03-15T03:26:40.000Z,19.79
2019-03-15T03:27:06.013Z,19.77
2019-03-15T03:27:32.010Z,19.77
2019-03-15T03:27:58.175Z,19.77
2019-03-15T03:28:24.018Z,19.75
2019-03-15T03:28:50.085Z,19.74
2019-03-15T03:29:16.023Z,19.72
2019-03-15T03:29:42.023Z,19.72
2019-03-15T03:30:08.021Z,19.71
2019-03-15T03:30:34.009Z,19.7
2019-03-15T03:31:00.010Z,19.7
2019-03-15T03:31:26.011Z,19.71
2019-03-15T03:31:52.019Z,19.71
2019-03-15T03:32:18.098Z,19.7
2019-03-15T03:32:44.010Z,19.7
2019-03-15T03:33:10.030Z,19.69
2019-03-15T03:33:36.012Z,19.7
2019-03-15T03:34:02.031Z,19.69
2019-03-15T03:34:28.012Z,19.68
2019-03-15T03:34:54.024Z,19.69
2019-03-15T03:35:20.093Z,19.7
2019-03-15T03:35:46.053Z,19.71
2019-03-15T03:36:12.032Z,19.72
2019-03-15T03:36:38.015Z,19.72
2019-03-15T03:37:04.017Z,19.72
2019-03-15T03:37:30.019Z,19.72
2019-03-15T03:37:56.589Z,19.72
2019-03-15T03:38:22.036Z,19.72
2019-03-15T03:38:48.039Z,19.71
2019-03-15T03:39:14.026Z,19.71
2019-03-15T03:39:40.038Z,19.7
2019-03-15T03:40:06.017Z,19.7
2019-03-15T03:40:32.054Z,19.69
2019-03-15T03:40:58.033Z,19.68
2019-03-15T03:41:24.033Z,19.68
2019-03-15T03:41:50.042Z,19.68
2019-03-15T03:42:16.110Z,19.7
2019-03-15T03:42:42.065Z,19.69
2019-03-15T03:43:08.042Z,19.68
2019-03-15T03:43:34.030Z,19.68
2019-03-15T03:44:00.027Z,19.68
2019-03-15T03:44:26.029Z,19.68
2019-03-15T03:44:52.048Z,19.68
2019-03-15T03:45:18.043Z,19.69
2019-03-15T03:45:44.024Z,19.69
2019-03-15T03:46:10.056Z,19.69
2019-03-15T03:46:36.044Z,19.69
2019-03-15T03:47:02.052Z,19.69
2019-03-15T03:47:28.033Z,19.69
2019-03-15T03:47:54.043Z,19.68
2019-03-15T03:48:20.047Z,19.69
2019-03-15T03:48:46.048Z,19.69
2019-03-15T03:49:12.052Z,19.69
2019-03-15T03:49:38.054Z,19.68
2019-03-15T03:50:04.036Z,19.69
2019-03-15T03:50:30.036Z,19.69
2019-03-15T03:50:56.036Z,19.68
2019-03-15T03:51:22.054Z,19.68
2019-03-15T03:51:48.060Z,19.67
2019-03-15T03:52:14.106Z,19.67
2019-03-15T03:52:40.059Z,19.66
2019-03-15T03:53:06.062Z,19.67
2019-03-15T03:53:32.055Z,19.66
2019-03-15T03:53:58.041Z,19.66
2019-03-15T03:54:24.042Z,19.66
2019-03-15T03:54:50.050Z,19.66
2019-03-15T03:55:16.125Z,19.65
2019-03-15T03:55:42.056Z,19.65
2019-03-15T03:56:08.062Z,19.65
2019-03-15T03:56:34.048Z,19.65
2019-03-15T03:57:00.050Z,19.65
2019-03-15T03:57:26.061Z,19.64
2019-03-15T03:57:52.065Z,19.65
2019-03-15T03:58:18.065Z,19.65
2019-03-15T03:58:44.049Z,19.65
2019-03-15T03:59:10.060Z,19.65
2019-03-15T03:59:36.048Z,19.65
2019-03-15T04:00:02.078Z,19.64
2019-03-15T04:00:28.047Z,19.64
2019-03-15T04:00:54.047Z,19.63
2019-03-15T04:01:20.442Z,19.63
2019-03-15T04:01:46.071Z,19.64
2019-03-15T04:02:12.066Z,19.63
2019-03-15T04:02:38.083Z,19.63
2019-03-15T04:03:04.057Z,19.63
2019-03-15T04:03:30.054Z,19.61
2019-03-15T04:03:56.051Z,19.61
2019-03-15T04:04:22.071Z,19.61
2019-03-15T04:04:48.139Z,19.6
2019-03-15T04:05:14.055Z,19.6
2019-03-15T04:05:40.071Z,19.6
2019-03-15T04:06:06.059Z,19.6
2019-03-15T04:06:32.074Z,19.6
2019-03-15T04:06:58.080Z,19.6
2019-03-15T04:07:24.062Z,19.59
2019-03-15T04:07:50.065Z,19.59
2019-03-15T04:08:16.069Z,19.59
2019-03-15T04:08:42.138Z,19.59
2019-03-15T04:09:08.142Z,19.58
2019-03-15T04:09:34.062Z,19.58
2019-03-15T04:10:00.075Z,19.58
2019-03-15T04:10:26.066Z,19.57
2019-03-15T04:10:52.086Z,19.57
2019-03-15T04:11:18.069Z,19.57
2019-03-15T04:11:44.079Z,19.57
2019-03-15T04:12:10.083Z,19.56
2019-03-15T04:12:36.097Z,19.55
2019-03-15T04:13:02.082Z,19.55
2019-03-15T04:13:28.067Z,19.55
2019-03-15T04:13:54.077Z,19.55
2019-03-15T04:14:20.068Z,19.55
2019-03-15T04:14:46.085Z,19.55
2019-03-15T04:15:12.086Z,19.55
2019-03-15T04:15:38.092Z,19.56
2019-03-15T04:16:04.075Z,19.56
2019-03-15T04:16:30.089Z,19.56
2019-03-15T04:16:56.074Z,19.56
2019-03-15T04:17:22.092Z,19.55
2019-03-15T04:17:48.077Z,19.55
2019-03-15T04:18:14.084Z,19.56
2019-03-15T04:18:40.163Z,19.55
2019-03-15T04:19:06.091Z,19.55
2019-03-15T04:19:32.251Z,19.55
2019-03-15T04:19:58.077Z,19.54
2019-03-15T04:20:24.080Z,19.54
2019-03-15T04:20:50.082Z,19.54
2019-03-15T04:21:16.092Z,19.54
2019-03-15T04:21:42.101Z,19.53
2019-03-15T04:22:08.099Z,19.52
2019-03-15T04:22:34.082Z,19.52
2019-03-15T04:23:00.100Z,19.51
2019-03-15T04:23:26.083Z,19.51
2019-03-15T04:23:52.149Z,19.51
2019-03-15T04:24:18.081Z,19.5
2019-03-15T04:24:44.081Z,19.5
2019-03-15T04:25:10.100Z,19.49
2019-03-15T04:25:36.102Z,19.49
2019-03-15T04:26:02.102Z,19.49
2019-03-15T04:26:28.105Z,19.49
2019-03-15T04:26:54.091Z,19.48
2019-03-15T04:27:20.117Z,19.48
2019-03-15T04:27:46.087Z,19.48
2019-03-15T04:28:12.121Z,19.48
2019-03-15T04:28:38.095Z,19.48
2019-03-15T04:29:04.088Z,19.47
2019-03-15T04:29:30.107Z,19.46
2019-03-15T04:29:56.107Z,19.47
2019-03-15T04:30:22.107Z,19.47
2019-03-15T04:30:48.112Z,19.46
2019-03-15T04:31:14.089Z,19.46
2019-03-15T04:31:40.097Z,19.45
2019-03-15T04:32:06.583Z,19.45
2019-03-15T04:32:32.102Z,19.44
2019-03-15T04:32:58.115Z,19.44
2019-03-15T04:33:24.168Z,19.44
2019-03-15T04:33:50.114Z,19.44
2019-03-15T04:34:16.094Z,19.44
2019-03-15T04:34:42.119Z,19.44
2019-03-15T04:35:08.105Z,19.44
2019-03-15T04:35:34.108Z,19.43
2019-03-15T04:36:00.117Z,19.42
2019-03-15T04:36:26.114Z,19.42
2019-03-15T04:36:52.114Z,19.41
2019-03-15T04:37:18.118Z,19.42
2019-03-15T04:37:44.100Z,19.42
2019-03-15T04:38:10.116Z,19.41
2019-03-15T04:38:36.130Z,19.42
2019-03-15T04:39:02.103Z,19.42
2019-03-15T04:39:28.118Z,19.42
2019-03-15T04:39:54.175Z,19.42
2019-03-15T04:40:20.120Z,19.41
2019-03-15T04:40:46.106Z,19.4
2019-03-15T04:41:12.121Z,19.4
2019-03-15T04:41:38.104Z,19.4
2019-03-15T04:42:04.109Z,19.39
2019-03-15T04:42:30.118Z,19.39
2019-03-15T04:42:56.189Z,19.38
2019-03-15T04:43:22.126Z,19.38
2019-03-15T04:43:48.124Z,19.37
2019-03-15T04:44:14.112Z,19.37
2019-03-15T04:44:40.113Z,19.37
2019-03-15T04:45:06.111Z,19.37
2019-03-15T04:45:32.132Z,19.36
2019-03-15T04:45:58.208Z,19.36
2019-03-15T04:46:24.113Z,19.36
2019-03-15T04:46:50.131Z,19.35
2019-03-15T04:47:16.114Z,19.35
2019-03-15T04:47:42.131Z,19.34
2019-03-15T04:48:08.116Z,19.35
2019-03-15T04:48:34.130Z,19.35
2019-03-15T04:49:00.204Z,19.35
2019-03-15T04:49:26.133Z,19.35
2019-03-15T04:49:52.134Z,19.35
2019-03-15T04:50:18.137Z,19.35
2019-03-15T04:50:44.124Z,19.35
2019-03-15T04:51:10.134Z,19.35
2019-03-15T04:51:36.122Z,19.34
2019-03-15T04:52:02.121Z,19.33
2019-03-15T04:52:28.132Z,19.33
2019-03-15T04:52:54.197Z,19.33
2019-03-15T04:53:20.140Z,19.33
2019-03-15T04:53:46.128Z,19.33
2019-03-15T04:54:12.138Z,19.33
2019-03-15T04:54:38.125Z,19.33
2019-03-15T04:55:04.126Z,19.33
2019-03-15T04:55:30.124Z,19.32
2019-03-15T04:55:56.143Z,19.32
2019-03-15T04:56:22.205Z,19.32
2019-03-15T04:56:48.143Z,19.31
2019-03-15T04:57:14.130Z,19.31
2019-03-15T04:57:40.146Z,19.31
2019-03-15T04:58:06.722Z,19.31
2019-03-15T04:58:32.144Z,19.32
2019-03-15T04:58:58.132Z,19.31
2019-03-15T04:59:24.133Z,19.31
2019-03-15T04:59:50.134Z,19.3
2019-03-15T05:00:16.138Z,19.29
2019-03-15T05:00:42.150Z,19.29
2019-03-15T05:01:08.222Z,19.29
2019-03-15T05:01:34.952Z,19.28
2019-03-15T05:02:00.153Z,19.27
2019-03-15T05:02:26.134Z,19.27
2019-03-15T05:02:52.158Z,19.28
2019-03-15T05:03:18.139Z,19.27
2019-03-15T05:03:44.139Z,19.28
2019-03-15T05:04:10.144Z,19.28
2019-03-15T05:04:36.158Z,19.27
2019-03-15T05:05:02.156Z,19.27
2019-03-15T05:05:28.207Z,19.27
2019-03-15T05:05:54.139Z,19.27
2019-03-15T05:06:20.162Z,19.28
2019-03-15T05:06:46.143Z,19.27
2019-03-15T05:07:12.177Z,19.27
2019-03-15T05:07:38.146Z,19.27
2019-03-15T05:08:04.149Z,19.27
2019-03-15T05:08:30.161Z,19.26
2019-03-15T05:08:56.163Z,19.26
2019-03-15T05:09:22.165Z,19.26
2019-03-15T05:09:48.143Z,19.26
2019-03-15T05:10:14.146Z,19.26
2019-03-15T05:10:40.146Z,19.25
2019-03-15T05:11:06.162Z,19.26
2019-03-15T05:11:32.228Z,19.25
2019-03-15T05:11:58.167Z,19.24
2019-03-15T05:12:24.149Z,19.24
2019-03-15T05:12:50.165Z,19.23
2019-03-15T05:13:16.163Z,19.23
2019-03-15T05:13:42.168Z,19.23
2019-03-15T05:14:08.155Z,19.23
2019-03-15T05:14:34.155Z,19.23
2019-03-15T05:15:00.330Z,19.23
2019-03-15T05:15:26.171Z,19.23
2019-03-15T05:15:52.182Z,19.23
2019-03-15T05:16:18.169Z,19.23
2019-03-15T05:16:44.155Z,19.23
2019-03-15T05:17:10.177Z,19.23
2019-03-15T05:17:36.158Z,19.22
2019-03-15T05:18:02.175Z,19.22
2019-03-15T05:18:28.170Z,19.22
2019-03-15T05:18:54.228Z,19.22
2019-03-15T05:19:20.182Z,19.22
2019-03-15T05:19:46.159Z,19.22
2019-03-15T05:20:12.228Z,19.21
2019-03-15T05:20:38.162Z,19.22
2019-03-15T05:21:04.165Z,19.21
2019-03-15T05:21:30.171Z,19.2
2019-03-15T05:21:56.243Z,19.2
2019-03-15T05:22:22.181Z,19.2
2019-03-15T05:22:48.181Z,19.19
2019-03-15T05:23:14.165Z,19.2
2019-03-15T05:23:40.180Z,19.2
2019-03-15T05:24:06.203Z,19.19
2019-03-15T05:24:32.179Z,19.2
2019-03-15T05:24:58.171Z,19.2
2019-03-15T05:25:24.198Z,19.19
2019-03-15T05:25:50.248Z,19.2
2019-03-15T05:26:16.247Z,19.2
2019-03-15T05:26:42.191Z,19.19
2019-03-15T05:27:08.183Z,19.18
2019-03-15T05:27:34.171Z,19.18
2019-03-15T05:28:00.185Z,19.18
2019-03-15T05:28:26.179Z,19.17
2019-03-15T05:28:52.177Z,19.17
2019-03-15T05:29:18.191Z,19.17
2019-03-15T05:29:44.176Z,19.17
2019-03-15T05:30:10.190Z,19.17
2019-03-15T05:30:36.176Z,19.17
2019-03-15T05:31:02.193Z,19.17
2019-03-15T05:31:28.175Z,19.16
2019-03-15T05:31:54.180Z,19.16
2019-03-15T05:32:20.196Z,19.16
2019-03-15T05:32:46.254Z,19.16
2019-03-15T05:33:12.193Z,19.15
2019-03-15T05:33:38.203Z,19.15
2019-03-15T05:34:04.179Z,19.16
2019-03-15T05:34:30.198Z,19.15
2019-03-15T05:34:56.182Z,19.15
2019-03-15T05:35:22.196Z,19.15
2019-03-15T05:35:48.188Z,19.15
2019-03-15T05:36:14.191Z,19.17